createdAt,value
2022-08-21T00:01:46.812Z,17.87
2022-08-21T00:04:20.853Z,16.73
2022-08-21T00:06:52.339Z,19.40
2022-08-21T00:09:21.275Z,19.33
2022-08-21T00:11:49.518Z,15.10
2022-08-21T00:14:18.173Z,17.40
2022-08-21T00:16:46.293Z,15.67
2022-08-21T00:19:14.297Z,15.97
2022-08-21T00:21:44.361Z,15.17
2022-08-21T00:24:14.695Z,17.87
2022-08-21T00:26:44.407Z,15.70
2022-08-21T00:29:12.400Z,14.37
2022-08-21T00:31:40.445Z,14.27
2022-08-21T00:34:08.965Z,18.33
2022-08-21T00:36:39.024Z,17.47
2022-08-21T00:39:08.750Z,17.87
2022-08-21T00:41:40.076Z,17.00
2022-08-21T00:44:10.862Z,18.37
2022-08-21T00:46:40.480Z,14.53
2022-08-21T00:49:09.797Z,16.37
2022-08-21T00:51:41.923Z,18.10
2022-08-21T00:54:18.265Z,17.27
2022-08-21T00:56:49.033Z,17.53
2022-08-21T00:59:18.336Z,17.33
2022-08-21T01:01:46.488Z,20.00
2022-08-21T01:04:15.982Z,17.37
2022-08-21T01:06:44.138Z,14.27
2022-08-21T01:09:12.314Z,16.17
2022-08-21T01:11:40.547Z,16.50
2022-08-21T01:14:11.271Z,15.67
2022-08-21T01:16:39.709Z,16.60
2022-08-21T01:19:08.844Z,15.17
2022-08-21T01:21:38.225Z,15.10
2022-08-21T01:24:07.034Z,15.43
2022-08-21T01:26:36.571Z,15.67
2022-08-21T01:29:15.662Z,14.20
2022-08-21T01:31:43.669Z,17.87
2022-08-21T01:34:12.568Z,15.93
2022-08-21T01:36:41.931Z,16.67
2022-08-21T01:39:10.165Z,14.70
2022-08-21T01:41:38.257Z,16.43
2022-08-21T01:44:06.803Z,13.43
2022-08-21T01:46:35.166Z,14.60
2022-08-21T01:49:03.364Z,18.17
2022-08-21T01:51:31.350Z,16.00
2022-08-21T01:54:00.712Z,17.60
2022-08-21T01:56:28.918Z,15.50
2022-08-21T01:58:57.290Z,16.20
2022-08-21T02:01:25.519Z,13.37
2022-08-21T02:03:53.591Z,12.43
2022-08-21T02:06:21.622Z,14.37
2022-08-21T02:08:51.526Z,13.93
2022-08-21T02:11:21.324Z,16.10
2022-08-21T02:13:49.276Z,13.20
2022-08-21T02:16:19.462Z,16.07
2022-08-21T02:18:48.053Z,15.30
2022-08-21T02:21:16.312Z,15.90
2022-08-21T02:23:44.917Z,13.47
2022-08-21T02:26:13.828Z,14.93
2022-08-21T02:28:43.298Z,11.97
2022-08-21T02:31:11.604Z,12.93
2022-08-21T02:33:40.361Z,14.47
2022-08-21T02:36:09.587Z,14.80
2022-08-21T02:38:39.114Z,13.30
2022-08-21T02:41:08.598Z,13.87
2022-08-21T02:43:36.865Z,14.47
2022-08-21T02:46:07.763Z,13.87
2022-08-21T02:48:35.805Z,16.10
2022-08-21T02:51:06.400Z,14.17
2022-08-21T02:53:35.182Z,12.50
2022-08-21T02:56:06.123Z,14.97
2022-08-21T02:58:36.957Z,12.17
2022-08-21T03:01:09.425Z,15.00
2022-08-21T03:03:42.072Z,13.60
2022-08-21T03:06:11.358Z,12.17
2022-08-21T03:08:39.863Z,12.47
2022-08-21T03:11:08.731Z,11.33
2022-08-21T03:13:39.936Z,10.53
2022-08-21T03:16:10.758Z,11.80
2022-08-21T03:18:39.374Z,10.40
2022-08-21T03:21:08.083Z,12.17
2022-08-21T03:23:36.211Z,10.23
2022-08-21T03:26:05.364Z,10.27
2022-08-21T03:28:33.453Z,8.73
2022-08-21T03:31:01.492Z,9.33
2022-08-21T03:33:30.990Z,10.80
2022-08-21T03:36:01.953Z,10.27
2022-08-21T03:38:31.674Z,9.47
2022-08-21T03:41:00.962Z,8.37
2022-08-21T03:43:31.077Z,9.53
2022-08-21T03:46:00.808Z,8.80
2022-08-21T03:48:30.272Z,8.57
2022-08-21T03:50:58.321Z,8.13
2022-08-21T03:53:26.592Z,7.47
2022-08-21T03:55:55.220Z,7.83
2022-08-21T03:58:25.604Z,7.90
2022-08-21T04:00:56.546Z,7.93
2022-08-21T04:03:24.723Z,7.33
2022-08-21T04:05:54.102Z,6.60
2022-08-21T04:08:22.127Z,6.07
2022-08-21T04:10:52.604Z,5.60
2022-08-21T04:13:20.758Z,5.80
2022-08-21T04:15:49.083Z,6.37
2022-08-21T04:18:17.368Z,6.20
2022-08-21T04:20:50.281Z,6.40
2022-08-21T04:23:24.528Z,5.73
2022-08-21T04:25:53.854Z,5.73
2022-08-21T04:28:23.142Z,5.50
2022-08-21T04:30:53.003Z,5.97
2022-08-21T04:33:21.406Z,5.53
2022-08-21T04:35:49.980Z,5.80
2022-08-21T04:38:18.218Z,5.77
2022-08-21T04:40:47.668Z,5.90
2022-08-21T04:43:15.695Z,5.80
2022-08-21T04:45:45.817Z,5.50
2022-08-21T04:48:15.215Z,6.67
2022-08-21T04:50:45.861Z,5.70
2022-08-21T04:53:16.356Z,5.40
2022-08-21T04:55:45.363Z,5.50
2022-08-21T04:58:18.322Z,5.53
2022-08-21T05:00:47.063Z,5.83
2022-08-21T05:03:16.730Z,6.07
2022-08-21T05:05:45.262Z,5.20
2022-08-21T05:08:15.382Z,5.20
2022-08-21T05:10:44.140Z,5.60
2022-08-21T05:13:14.556Z,5.33
2022-08-21T05:15:42.970Z,5.90
2022-08-21T05:18:11.142Z,5.77
2022-08-21T05:20:39.130Z,6.07
2022-08-21T05:23:09.934Z,6.10
2022-08-21T05:25:38.702Z,5.87
2022-08-21T05:28:07.992Z,5.87
2022-08-21T05:30:38.025Z,5.83
2022-08-21T05:33:07.645Z,5.47
2022-08-21T05:35:35.855Z,5.70
2022-08-21T05:38:04.390Z,5.23
2022-08-21T05:40:32.385Z,5.43
2022-08-21T05:43:01.148Z,5.73
2022-08-21T05:45:42.344Z,6.07
2022-08-21T05:48:16.129Z,5.20
2022-08-21T05:50:44.796Z,4.80
2022-08-21T05:53:13.491Z,5.70
2022-08-21T05:55:45.659Z,5.40
2022-08-21T05:58:14.592Z,6.00
2022-08-21T06:00:42.904Z,5.50
2022-08-21T06:03:15.045Z,6.10
2022-08-21T06:05:43.176Z,5.20
2022-08-21T06:08:11.321Z,5.90
2022-08-21T06:10:39.523Z,6.00
2022-08-21T06:13:07.508Z,5.70
2022-08-21T06:15:35.499Z,6.10
2022-08-21T06:18:03.742Z,5.93
2022-08-21T06:20:33.693Z,5.90
2022-08-21T06:23:01.862Z,5.60
2022-08-21T06:25:30.129Z,5.67
2022-08-21T06:28:02.965Z,5.87
2022-08-21T06:30:31.043Z,5.90
2022-08-21T06:32:59.770Z,5.60
2022-08-21T06:35:29.991Z,5.90
2022-08-21T06:37:59.755Z,6.23
2022-08-21T06:40:29.790Z,5.97
2022-08-21T06:42:59.587Z,7.07
2022-08-21T06:45:32.258Z,5.77
2022-08-21T06:48:01.003Z,7.30
2022-08-21T06:50:29.356Z,7.40
2022-08-21T06:53:07.314Z,7.87
2022-08-21T06:55:35.671Z,7.40
2022-08-21T06:58:03.861Z,8.20
2022-08-21T07:00:32.032Z,7.10
2022-08-21T07:03:00.490Z,7.40
2022-08-21T07:05:29.651Z,9.50
2022-08-21T07:07:57.987Z,7.60
2022-08-21T07:10:28.445Z,8.83
2022-08-21T07:13:00.894Z,9.67
2022-08-21T07:15:30.909Z,8.40
2022-08-21T07:17:59.506Z,7.60
2022-08-21T07:20:28.243Z,9.27
2022-08-21T07:22:56.741Z,8.97
2022-08-21T07:25:24.762Z,11.57
2022-08-21T07:27:54.169Z,8.80
2022-08-21T07:30:22.276Z,10.37
2022-08-21T07:32:50.849Z,9.10
2022-08-21T07:35:19.704Z,11.27
2022-08-21T07:37:48.290Z,8.90
2022-08-21T07:40:18.108Z,9.30
2022-08-21T07:42:51.099Z,14.60
2022-08-21T07:45:22.014Z,13.50
2022-08-21T07:47:54.252Z,10.37
2022-08-21T07:50:29.741Z,9.90
2022-08-21T07:52:58.047Z,12.17
2022-08-21T07:55:26.366Z,13.27
2022-08-21T07:57:54.511Z,13.60
2022-08-21T08:00:26.990Z,10.60
2022-08-21T08:02:55.645Z,13.90
2022-08-21T08:05:25.638Z,12.83
2022-08-21T08:07:53.693Z,10.60
2022-08-21T08:10:23.044Z,12.47
2022-08-21T08:12:52.271Z,13.83
2022-08-21T08:15:25.521Z,11.97
2022-08-21T08:17:53.756Z,13.67
2022-08-21T08:20:22.572Z,11.87
2022-08-21T08:22:53.893Z,13.57
2022-08-21T08:25:26.269Z,13.17
2022-08-21T08:27:55.637Z,11.57
2022-08-21T08:30:31.260Z,12.60
2022-08-21T08:33:02.177Z,12.80
2022-08-21T08:35:30.455Z,14.63
2022-08-21T08:38:00.958Z,16.50
2022-08-21T08:40:34.374Z,15.50
2022-08-21T08:43:08.913Z,13.40
2022-08-21T08:45:40.176Z,15.93
2022-08-21T08:48:14.112Z,14.10
2022-08-21T08:50:46.338Z,13.73
2022-08-21T08:53:17.308Z,12.97
2022-08-21T08:55:52.290Z,11.77
2022-08-21T08:58:26.292Z,14.07
2022-08-21T09:00:56.987Z,12.70
2022-08-21T09:03:25.936Z,12.50
2022-08-21T09:06:13.333Z,14.10
2022-08-21T09:08:51.069Z,11.73
2022-08-21T09:11:26.290Z,11.00
2022-08-21T09:14:00.163Z,13.30
2022-08-21T09:16:34.727Z,10.97
2022-08-21T09:19:08.933Z,10.87
2022-08-21T09:21:45.214Z,9.30
2022-08-21T09:24:27.807Z,8.80
2022-08-21T09:27:03.178Z,8.97
2022-08-21T09:29:35.650Z,10.87
2022-08-21T09:32:06.624Z,10.80
2022-08-21T09:34:35.738Z,10.20
2022-08-21T09:37:06.007Z,9.50
2022-08-21T09:39:41.175Z,8.70
2022-08-21T09:42:12.447Z,8.53
2022-08-21T09:44:45.052Z,9.67
2022-08-21T09:47:14.958Z,7.20
2022-08-21T09:49:44.385Z,7.20
2022-08-21T09:52:19.003Z,8.87
2022-08-21T09:54:48.551Z,8.30
2022-08-21T09:57:39.437Z,8.10
2022-08-21T10:00:21.739Z,9.03
2022-08-21T10:02:51.097Z,8.60
2022-08-21T10:05:23.746Z,7.93
2022-08-21T10:07:52.298Z,8.50
2022-08-21T10:10:22.433Z,7.73
2022-08-21T10:12:55.279Z,8.60
2022-08-21T10:15:35.775Z,7.40
2022-08-21T10:18:12.374Z,6.90
2022-08-21T10:20:47.399Z,7.03
2022-08-21T10:23:29.709Z,7.30
2022-08-21T10:26:13.317Z,7.53
2022-08-21T10:28:48.089Z,6.70
2022-08-21T10:31:20.730Z,6.20
2022-08-21T10:33:58.199Z,7.13
2022-08-21T10:36:33.113Z,6.30
2022-08-21T10:39:26.013Z,6.10
2022-08-21T10:42:14.399Z,6.77
2022-08-21T10:44:50.747Z,6.40
2022-08-21T10:47:25.221Z,6.10
2022-08-21T10:50:03.851Z,6.60
2022-08-21T10:52:48.352Z,7.27
2022-08-21T10:55:18.994Z,7.00
2022-08-21T10:57:50.412Z,6.90
2022-08-21T11:00:21.078Z,8.30
2022-08-21T11:02:52.697Z,7.67
2022-08-21T11:05:28.471Z,7.17
2022-08-21T11:07:59.863Z,6.70
2022-08-21T11:10:31.887Z,6.10
2022-08-21T11:13:06.585Z,6.30
2022-08-21T11:15:40.594Z,6.50
2022-08-21T11:18:19.568Z,6.07
2022-08-21T11:20:53.898Z,7.00
2022-08-21T11:23:30.305Z,7.00
2022-08-21T11:26:02.918Z,6.33
2022-08-21T11:28:35.000Z,7.27
2022-08-21T11:31:10.868Z,7.17
2022-08-21T11:33:50.343Z,7.10
2022-08-21T11:36:24.162Z,5.93
2022-08-21T11:38:56.895Z,6.63
2022-08-21T11:41:30.602Z,6.50
2022-08-21T11:44:09.399Z,5.83
2022-08-21T11:46:42.997Z,6.87
2022-08-21T11:49:23.575Z,6.60
2022-08-21T11:51:55.853Z,6.17
2022-08-21T11:54:28.910Z,7.10
2022-08-21T11:57:01.812Z,7.63
2022-08-21T11:59:40.645Z,7.23
2022-08-21T12:02:11.696Z,5.97
2022-08-21T12:04:47.147Z,5.97
2022-08-21T12:07:19.319Z,6.70
2022-08-21T12:09:56.059Z,7.10
2022-08-21T12:12:27.642Z,6.77
2022-08-21T12:15:25.701Z,6.00
2022-08-21T12:17:59.684Z,6.10
2022-08-21T12:20:45.091Z,6.50
2022-08-21T12:23:27.942Z,5.93
2022-08-21T12:26:16.366Z,5.93
2022-08-21T12:28:44.386Z,6.07
2022-08-21T12:31:24.771Z,4.90
2022-08-21T12:33:56.859Z,5.27
2022-08-21T12:36:27.167Z,5.20
2022-08-21T12:38:59.901Z,6.10
2022-08-21T12:41:30.207Z,5.80
2022-08-21T12:44:01.045Z,6.30
2022-08-21T12:46:34.289Z,5.70
2022-08-21T12:49:05.170Z,5.80
2022-08-21T12:51:37.043Z,5.70
2022-08-21T12:54:06.520Z,5.40
2022-08-21T12:56:37.109Z,5.80
2022-08-21T12:59:07.669Z,5.80
2022-08-21T13:01:45.947Z,5.73
2022-08-21T13:04:17.062Z,5.23
2022-08-21T13:06:47.425Z,4.40
2022-08-21T13:09:19.371Z,5.47
2022-08-21T13:11:49.823Z,5.17
2022-08-21T13:14:26.975Z,5.33
2022-08-21T13:16:56.975Z,5.67
2022-08-21T13:19:26.576Z,5.67
2022-08-21T13:21:55.060Z,4.67
2022-08-21T13:24:41.849Z,4.87
2022-08-21T13:27:26.794Z,4.83
2022-08-21T13:30:07.087Z,4.60
2022-08-21T13:32:38.763Z,4.50
2022-08-21T13:35:13.113Z,5.00
2022-08-21T13:37:42.394Z,5.13
2022-08-21T13:40:15.980Z,4.70
2022-08-21T13:42:45.668Z,5.03
2022-08-21T13:45:20.779Z,5.30
2022-08-21T13:47:49.830Z,5.07
2022-08-21T13:50:20.643Z,5.30
2022-08-21T13:52:58.585Z,4.40
2022-08-21T13:55:37.358Z,4.50
2022-08-21T13:58:06.352Z,4.30
2022-08-21T14:00:37.372Z,4.70
2022-08-21T14:03:08.561Z,4.67
2022-08-21T14:05:39.990Z,4.37
2022-08-21T14:08:10.766Z,4.40
2022-08-21T14:10:45.713Z,3.93
2022-08-21T14:13:38.181Z,4.10
2022-08-21T14:16:18.215Z,4.17
2022-08-21T14:18:48.515Z,4.37
2022-08-21T14:21:27.348Z,4.20
2022-08-21T14:24:04.293Z,3.90
2022-08-21T14:26:36.707Z,4.10
2022-08-21T14:29:10.242Z,4.40
2022-08-21T14:31:43.128Z,3.73
2022-08-21T14:34:19.012Z,4.57
2022-08-21T14:36:48.888Z,4.13
2022-08-21T14:39:17.591Z,3.87
2022-08-21T14:41:49.503Z,4.40
2022-08-21T14:44:18.742Z,4.27
2022-08-21T14:46:56.064Z,3.97
2022-08-21T14:49:28.349Z,3.80
2022-08-21T14:51:58.511Z,4.00
2022-08-21T14:54:30.813Z,3.77
2022-08-21T14:57:06.919Z,3.50
2022-08-21T14:59:35.064Z,3.83
2022-08-21T15:02:05.234Z,3.73
2022-08-21T15:04:34.060Z,3.70
2022-08-21T15:07:02.627Z,4.07
2022-08-21T15:09:30.839Z,3.87
2022-08-21T15:12:01.000Z,3.93
2022-08-21T15:14:32.135Z,3.70
2022-08-21T15:17:00.181Z,3.57
2022-08-21T15:19:28.413Z,3.80
2022-08-21T15:21:56.485Z,3.60
2022-08-21T15:24:24.789Z,3.50
2022-08-21T15:26:53.758Z,3.33
2022-08-21T15:29:22.907Z,3.97
2022-08-21T15:31:57.550Z,3.50
2022-08-21T15:34:27.372Z,3.83
2022-08-21T15:36:57.172Z,3.37
2022-08-21T15:39:30.160Z,3.60
2022-08-21T15:42:00.154Z,3.63
2022-08-21T15:44:34.322Z,3.60
2022-08-21T15:47:03.922Z,3.60
2022-08-21T15:49:32.766Z,3.40
2022-08-21T15:52:00.736Z,3.63
2022-08-21T15:54:28.803Z,4.00
2022-08-21T15:56:56.790Z,3.67
2022-08-21T15:59:24.765Z,3.73
2022-08-21T16:01:53.361Z,3.30
2022-08-21T16:04:25.082Z,3.23
2022-08-21T16:06:57.684Z,3.63
2022-08-21T16:09:30.049Z,4.10
2022-08-21T16:11:58.078Z,4.03
2022-08-21T16:14:26.071Z,3.63
2022-08-21T16:16:54.756Z,3.40
2022-08-21T16:19:24.250Z,3.27
2022-08-21T16:21:52.323Z,3.40
2022-08-21T16:24:20.312Z,3.40
2022-08-21T16:26:56.145Z,3.40
2022-08-21T16:29:26.583Z,4.17
2022-08-21T16:31:55.227Z,3.57
2022-08-21T16:34:24.993Z,3.70
2022-08-21T16:36:52.986Z,4.43
2022-08-21T16:39:21.117Z,3.90
2022-08-21T16:41:49.977Z,4.20
2022-08-21T16:44:18.294Z,4.17
2022-08-21T16:46:46.577Z,3.93
2022-08-21T16:49:14.819Z,3.80
2022-08-21T16:51:44.487Z,3.50
2022-08-21T16:54:13.953Z,4.83
2022-08-21T16:56:47.006Z,3.73
2022-08-21T16:59:17.559Z,3.77
2022-08-21T17:01:46.121Z,3.60
2022-08-21T17:04:14.438Z,4.30
2022-08-21T17:06:44.243Z,4.23
2022-08-21T17:09:12.601Z,4.00
2022-08-21T17:11:42.380Z,4.20
2022-08-21T17:14:12.450Z,4.00
2022-08-21T17:16:41.623Z,4.33
2022-08-21T17:19:09.769Z,3.73
2022-08-21T17:21:37.757Z,4.70
2022-08-21T17:24:07.301Z,4.10
2022-08-21T17:26:35.693Z,4.10
2022-08-21T17:29:04.471Z,4.10
2022-08-21T17:31:32.611Z,3.90
2022-08-21T17:34:00.645Z,3.60
2022-08-21T17:36:30.306Z,4.20
2022-08-21T17:38:58.652Z,3.97
2022-08-21T17:41:28.710Z,4.13
2022-08-21T17:43:56.819Z,4.20
2022-08-21T17:46:27.735Z,3.90
2022-08-21T17:48:56.150Z,4.13
2022-08-21T17:51:24.277Z,3.80
2022-08-21T17:53:52.262Z,3.97
2022-08-21T17:56:20.958Z,3.80
2022-08-21T17:58:52.379Z,3.70
2022-08-21T18:01:20.968Z,3.67
2022-08-21T18:03:49.901Z,3.80
2022-08-21T18:06:18.469Z,4.07
2022-08-21T18:08:46.532Z,3.70
2022-08-21T18:11:23.190Z,3.80
2022-08-21T18:13:54.054Z,4.53
2022-08-21T18:16:22.413Z,4.00
2022-08-21T18:18:51.684Z,4.10
2022-08-21T18:21:19.988Z,4.50
2022-08-21T18:23:48.187Z,4.70
2022-08-21T18:26:20.923Z,4.13
2022-08-21T18:28:49.320Z,4.03
2022-08-21T18:31:18.712Z,4.13
2022-08-21T18:33:57.864Z,4.17
2022-08-21T18:36:26.975Z,4.40
2022-08-21T18:38:55.171Z,4.60
2022-08-21T18:41:23.732Z,4.40
2022-08-21T18:43:51.796Z,4.50
2022-08-21T18:46:21.143Z,4.70
2022-08-21T18:48:49.106Z,4.40
2022-08-21T18:51:17.566Z,4.73
2022-08-21T18:53:47.862Z,4.60
2022-08-21T18:56:21.889Z,5.03
2022-08-21T18:58:50.862Z,4.97
2022-08-21T19:01:18.893Z,5.13
2022-08-21T19:03:49.847Z,6.00
2022-08-21T19:06:17.981Z,4.60
2022-08-21T19:08:46.169Z,4.80
2022-08-21T19:11:14.592Z,4.43
2022-08-21T19:13:52.212Z,4.80
2022-08-21T19:16:21.094Z,4.53
2022-08-21T19:18:50.475Z,5.10
2022-08-21T19:21:18.478Z,5.33
2022-08-21T19:23:52.605Z,5.07
2022-08-21T19:26:22.043Z,5.40
2022-08-21T19:28:52.235Z,4.70
2022-08-21T19:31:23.862Z,5.00
2022-08-21T19:34:01.778Z,4.63
2022-08-21T19:36:45.350Z,5.00
2022-08-21T19:39:14.306Z,4.93
2022-08-21T19:41:45.457Z,4.40
2022-08-21T19:44:17.006Z,4.80
2022-08-21T19:46:49.939Z,5.00
2022-08-21T19:49:22.050Z,4.90
2022-08-21T19:51:50.580Z,5.00
2022-08-21T19:54:21.074Z,4.77
2022-08-21T19:56:49.758Z,5.17
2022-08-21T19:59:24.836Z,5.20
2022-08-21T20:01:53.235Z,5.67
2022-08-21T20:04:24.888Z,5.50
2022-08-21T20:06:55.810Z,5.53
2022-08-21T20:09:25.902Z,5.10
2022-08-21T20:11:59.756Z,5.43
2022-08-21T20:14:30.823Z,5.63
2022-08-21T20:17:01.989Z,5.70
2022-08-21T20:19:32.431Z,5.80
2022-08-21T20:22:00.540Z,5.67
2022-08-21T20:24:29.821Z,6.30
2022-08-21T20:26:58.377Z,5.83
2022-08-21T20:29:31.501Z,5.70
2022-08-21T20:32:07.804Z,5.77
2022-08-21T20:34:37.377Z,5.10
2022-08-21T20:37:05.724Z,5.63
2022-08-21T20:39:33.809Z,5.73
2022-08-21T20:42:01.843Z,6.60
2022-08-21T20:44:32.699Z,6.10
2022-08-21T20:47:01.443Z,6.27
2022-08-21T20:49:43.276Z,6.77
2022-08-21T20:52:11.405Z,6.70
2022-08-21T20:54:45.532Z,6.60
2022-08-21T20:57:18.180Z,6.37
2022-08-21T20:59:50.556Z,5.90
2022-08-21T21:02:26.750Z,6.10
2022-08-21T21:04:58.455Z,6.60
2022-08-21T21:07:32.532Z,6.30
2022-08-21T21:10:03.340Z,5.57
2022-08-21T21:12:35.661Z,6.10
2022-08-21T21:15:14.010Z,6.10
2022-08-21T21:17:44.269Z,5.90
2022-08-21T21:20:20.964Z,5.60
2022-08-21T21:22:56.504Z,5.40
2022-08-21T21:25:39.977Z,6.27
2022-08-21T21:28:12.803Z,5.67
2022-08-21T21:30:46.618Z,5.80
2022-08-21T21:33:16.513Z,5.40
2022-08-21T21:35:50.405Z,5.20
2022-08-21T21:38:26.152Z,6.30
2022-08-21T21:41:04.304Z,5.20
2022-08-21T21:43:45.145Z,5.00
2022-08-21T21:46:34.922Z,5.03
2022-08-21T21:49:20.994Z,5.40
2022-08-21T21:52:00.335Z,5.33
2022-08-21T21:54:51.814Z,5.70
2022-08-21T21:57:36.960Z,5.70
2022-08-21T22:00:09.775Z,5.07
2022-08-21T22:02:46.652Z,5.37
2022-08-21T22:05:22.176Z,5.00
2022-08-21T22:07:57.920Z,5.50
2022-08-21T22:10:32.065Z,5.57
2022-08-21T22:13:09.903Z,6.10
2022-08-21T22:15:41.463Z,5.70
2022-08-21T22:18:11.331Z,4.80
2022-08-21T22:20:44.234Z,5.10
2022-08-21T22:23:18.345Z,5.53
2022-08-21T22:25:50.624Z,5.80
2022-08-21T22:28:22.339Z,5.70
2022-08-21T22:30:56.471Z,5.40
2022-08-21T22:33:27.184Z,6.00
2022-08-21T22:35:57.465Z,5.83
2022-08-21T22:38:36.177Z,5.37
2022-08-21T22:41:13.756Z,5.73
2022-08-21T22:43:53.448Z,5.20
2022-08-21T22:46:28.912Z,5.60
2022-08-21T22:49:01.825Z,5.30
2022-08-21T22:51:34.106Z,5.50
2022-08-21T22:54:04.359Z,6.10
2022-08-21T22:59:38.097Z,5.57
2022-08-21T23:02:11.323Z,5.67
2022-08-21T23:04:46.884Z,5.97
2022-08-21T23:07:32.750Z,5.47
2022-08-21T23:10:02.474Z,5.80
2022-08-21T23:12:36.325Z,5.83
2022-08-21T23:15:09.296Z,6.17
2022-08-21T23:17:45.527Z,6.40
2022-08-21T23:20:22.719Z,4.80
2022-08-21T23:22:59.385Z,5.80
2022-08-21T23:25:42.593Z,5.50
2022-08-21T23:28:19.419Z,5.23
2022-08-21T23:31:06.683Z,4.90
2022-08-21T23:33:56.784Z,5.47
2022-08-21T23:36:47.909Z,5.63
2022-08-21T23:39:27.994Z,6.23
2022-08-21T23:42:02.418Z,6.80
2022-08-21T23:44:41.902Z,5.70
2022-08-21T23:47:21.943Z,5.40
2022-08-21T23:49:53.768Z,5.40
2022-08-21T23:52:30.750Z,5.47
2022-08-21T23:55:16.088Z,5.60
2022-08-21T23:57:54.106Z,5.50
